Time;durP1;ratioP1;P1;durP2;ratioP2;P2;SDS_P1;SDS_P2;PMS_P1;PMS_P2;Temp;Humidity;BMP_temperature;BMP_pressure;BME280_temperature;BME280_humidity;BME280_pressure;Samples;Min_cycle;Max_cycle;Signal;HPM_P1;HPM_P2
2024/01/03 00:00:07;;;;;;;6.28;1.40;;;;;;;10.29;49.80;98517.88;4951624;28;20229;-76
2024/01/03 00:02:35;;;;;;;6.45;1.50;;;;;;;10.27;49.93;98514.47;4953731;28;20098;-75
2024/01/03 00:05:05;;;;;;;5.45;1.60;;;;;;;10.27;50.28;98518.06;4935109;29;20074;-77
2024/01/03 00:07:33;;;;;;;4.90;1.50;;;;;;;10.27;49.72;98531.72;4935654;28;20047;-75
2024/01/03 00:10:01;;;;;;;4.18;1.30;;;;;;;10.27;49.65;98520.78;4953791;28;20047;-75
2024/01/03 00:12:29;;;;;;;4.75;1.48;;;;;;;10.28;49.89;98543.50;4933968;28;20039;-75
2024/01/03 00:14:57;;;;;;;6.55;1.45;;;;;;;10.27;50.17;98534.47;4952341;28;20043;-75
2024/01/03 00:17:28;;;;;;;3.88;1.13;;;;;;;10.29;49.80;98542.47;4951748;28;20062;-75
2024/01/03 00:19:57;;;;;;;5.63;1.90;;;;;;;10.27;49.83;98559.06;4934105;28;20043;-76
2024/01/03 00:22:26;;;;;;;4.85;1.23;;;;;;;10.27;49.74;98541.81;4950925;28;20038;-75
2024/01/03 00:25:06;;;;;;;5.07;1.60;;;;;;;10.27;49.83;98544.53;4951415;28;20049;-76
2024/01/03 00:27:34;;;;;;;4.78;1.70;;;;;;;10.24;49.91;98548.50;4934575;29;20134;-75
2024/01/03 00:30:06;;;;;;;6.88;1.45;;;;;;;10.27;49.09;98556.34;4950832;28;20051;-75
2024/01/03 00:32:37;;;;;;;4.60;1.35;;;;;;;10.26;49.84;98549.16;4935475;29;20043;-75
2024/01/03 00:35:15;;;;;;;4.70;1.40;;;;;;;10.24;49.54;98549.34;4951299;28;20043;-76
2024/01/03 00:37:43;;;;;;;4.35;1.50;;;;;;;10.26;49.56;98548.31;4934134;29;20043;-75
2024/01/03 10:56:06;;;;;;;3.60;1.33;;;;;;;9.60;52.44;98891.38;4965189;28;20054;-83
2024/01/03 10:58:36;;;;;;;4.93;1.35;;;;;;;9.64;52.29;98881.81;4962013;28;20499;-84
2024/01/03 11:01:14;;;;;;;6.07;2.10;;;;;;;9.70;52.29;98897.50;4958792;28;20051;-82
2024/01/03 11:03:50;;;;;;;4.05;1.30;;;;;;;9.73;52.34;98887.09;4947912;29;20066;-84
2024/01/03 11:06:24;;;;;;;5.70;1.55;;;;;;;9.78;52.72;98890.13;4956977;28;20590;-83
2024/01/03 11:08:55;;;;;;;6.65;2.20;;;;;;;9.84;52.46;98892.13;4956055;28;20894;-83
2024/01/03 11:11:32;;;;;;;4.43;1.33;;;;;;;9.94;51.82;98891.06;4972844;28;20074;-84
2024/01/03 11:14:01;;;;;;;7.68;1.70;;;;;;;9.97;52.49;98888.00;4958164;28;20050;-84
2024/01/03 11:16:37;;;;;;;7.05;1.60;;;;;;;10.05;51.54;98879.75;4974067;28;20034;-84
2024/01/03 11:19:07;;;;;;;4.97;1.60;;;;;;;10.05;52.08;98888.81;4975331;28;20043;-84
2024/01/03 11:21:46;;;;;;;6.18;1.50;;;;;;;10.14;50.81;98881.41;4973199;28;20042;-85
2024/01/03 11:24:41;;;;;;;5.55;1.55;;;;;;;10.15;50.77;98889.41;4950833;28;20062;-84
2024/01/03 11:27:19;;;;;;;3.85;1.45;;;;;;;10.20;50.86;98883.41;4958684;28;20297;-84
2024/01/03 11:29:53;;;;;;;5.30;1.40;;;;;;;10.19;51.50;98871.63;4957745;28;21085;-83
2024/01/03 11:32:29;;;;;;;4.00;1.52;;;;;;;10.28;50.82;98882.53;4974821;28;20053;-85
2024/01/03 11:35:06;;;;;;;3.97;1.25;;;;;;;10.27;51.10;98878.06;4954491;28;20047;-83
2024/01/03 11:37:36;;;;;;;4.25;1.20;;;;;;;10.31;50.84;98877.56;4966940;28;20051;-84
2024/01/03 11:40:06;;;;;;;6.05;1.58;;;;;;;10.33;50.82;98872.72;4972705;28;20090;-84
2024/01/03 11:42:38;;;;;;;5.45;1.20;;;;;;;10.39;51.01;98885.72;4968811;28;20107;-83
2024/01/03 11:45:09;;;;;;;4.15;1.20;;;;;;;10.42;50.80;98870.78;4943907;28;20047;-82
2024/01/03 11:47:39;;;;;;;4.75;1.48;;;;;;;10.48;50.87;98867.34;4953083;28;20134;-84
2024/01/03 11:50:09;;;;;;;3.70;1.30;;;;;;;10.52;51.15;98865.94;4945013;28;20039;-84
2024/01/03 11:52:38;;;;;;;7.00;1.38;;;;;;;10.57;50.62;98871.72;4961666;28;20062;-85
2024/01/03 11:55:11;;;;;;;5.97;1.35;;;;;;;10.61;50.47;98878.56;4976355;28;20047;-85
2024/01/03 11:57:42;;;;;;;4.20;1.42;;;;;;;10.66;50.26;98872.53;4963048;28;20110;-84
2024/01/03 12:00:12;;;;;;;5.50;1.80;;;;;;;10.69;50.28;98872.16;4968033;28;20105;-84
2024/01/03 12:02:50;;;;;;;5.40;1.65;;;;;;;10.75;49.72;98868.69;4958653;28;20042;-85
2024/01/03 12:05:19;;;;;;;5.75;1.70;;;;;;;10.72;50.33;98871.81;4971274;28;20050;-84
2024/01/03 12:07:48;;;;;;;4.00;1.30;;;;;;;10.74;50.06;98876.03;4969503;28;20053;-84
2024/01/03 12:10:20;;;;;;;7.07;1.58;;;;;;;10.73;50.34;98868.88;4957987;28;20557;-83
2024/01/03 12:12:51;;;;;;;3.55;1.10;;;;;;;10.75;50.38;98857.75;4958075;28;20475;-84
2024/01/03 12:15:25;;;;;;;3.50;1.00;;;;;;;10.74;49.86;98858.78;4970648;28;20135;-84
2024/01/03 12:18:04;;;;;;;3.80;0.95;;;;;;;10.71;49.85;98850.97;4946191;28;20038;-83
2024/01/03 12:20:33;;;;;;;3.88;1.05;;;;;;;10.68;49.93;98848.56;4955808;28;20070;-83
2024/01/03 12:23:09;;;;;;;3.83;1.10;;;;;;;10.70;49.67;98846.53;4953605;28;20050;-83
2024/01/03 12:25:38;;;;;;;2.65;1.00;;;;;;;10.65;50.34;98848.97;4950942;28;20059;-83
2024/01/03 12:28:08;;;;;;;5.10;1.40;;;;;;;10.65;49.87;98835.28;4968318;28;20093;-83
2024/01/03 12:30:36;;;;;;;3.85;1.30;;;;;;;10.63;50.72;98840.09;4957696;28;20046;-83
2024/01/03 12:33:11;;;;;;;4.10;1.10;;;;;;;10.65;50.47;98825.16;4964086;28;20039;-83
2024/01/03 12:35:41;;;;;;;6.15;1.88;;;;;;;10.62;50.66;98833.75;4973061;28;20043;-83
2024/01/03 12:38:09;;;;;;;5.45;1.30;;;;;;;10.63;50.07;98810.00;4956953;28;20039;-82
2024/01/03 12:40:38;;;;;;;5.25;1.58;;;;;;;10.63;50.30;98812.72;4968385;28;20061;-83
2024/01/03 12:43:06;;;;;;;7.35;1.67;;;;;;;10.61;50.32;98818.38;4970140;28;20039;-83
2024/01/03 12:45:36;;;;;;;5.78;1.35;;;;;;;10.63;49.78;98805.38;4944026;28;20558;-82
2024/01/03 12:48:04;;;;;;;3.63;1.50;;;;;;;10.64;50.14;98814.44;4950007;28;20511;-82
2024/01/03 12:50:32;;;;;;;5.28;1.67;;;;;;;10.63;49.89;98807.25;4953449;28;20054;-82
2024/01/03 12:53:00;;;;;;;6.90;1.90;;;;;;;10.62;50.16;98805.56;4946097;28;20129;-82
2024/01/03 12:55:28;;;;;;;6.85;1.67;;;;;;;10.60;50.02;98803.84;4957307;28;20051;-82
2024/01/03 12:57:56;;;;;;;9.32;2.17;;;;;;;10.63;49.85;98805.38;4965943;28;20071;-82
2024/01/03 13:00:24;;;;;;;4.78;1.52;;;;;;;10.59;49.79;98799.41;4967957;28;20038;-83
2024/01/03 13:03:04;;;;;;;3.65;1.23;;;;;;;10.62;49.49;98800.09;4955368;28;20097;-82
2024/01/03 13:05:32;;;;;;;4.07;1.40;;;;;;;10.59;49.66;98795.81;4949125;28;20063;-83
2024/01/03 13:08:00;;;;;;;6.72;1.63;;;;;;;10.62;49.91;98797.34;4971660;28;20101;-83
2024/01/03 13:10:28;;;;;;;5.00;1.45;;;;;;;10.60;49.83;98783.84;4967003;28;20050;-83
2024/01/03 13:12:58;;;;;;;6.57;1.65;;;;;;;10.60;49.78;98772.91;4956413;28;21485;-83
2024/01/03 13:15:26;;;;;;;6.53;1.50;;;;;;;10.60;49.96;98781.13;4953944;28;20042;-83
2024/01/03 13:17:55;;;;;;;5.68;1.30;;;;;;;10.59;49.86;98787.63;4948501;28;20081;-83
2024/01/03 13:20:24;;;;;;;4.68;1.58;;;;;;;10.59;49.46;98787.63;4968465;28;20482;-82
2024/01/03 13:22:51;;;;;;;6.53;1.50;;;;;;;10.60;49.95;98781.13;4973499;28;20517;-83
2024/01/03 13:25:19;;;;;;;8.13;1.50;;;;;;;10.57;49.67;98790.53;4954415;28;20499;-83
2024/01/03 13:27:47;;;;;;;4.70;1.50;;;;;;;10.57;49.40;98787.78;4971541;28;20450;-83
2024/01/03 13:30:15;;;;;;;3.88;1.25;;;;;;;10.58;49.54;98783.19;4963727;28;20078;-83
2024/01/03 13:32:44;;;;;;;5.18;1.40;;;;;;;10.55;49.39;98783.56;4942075;28;20062;-83
2024/01/03 13:35:14;;;;;;;5.07;1.40;;;;;;;10.58;49.52;98777.72;4965228;28;20051;-82
2024/01/03 13:37:42;;;;;;;4.13;1.23;;;;;;;10.55;49.30;98792.63;4956619;28;20043;-83
2024/01/03 13:40:11;;;;;;;5.90;1.70;;;;;;;10.60;49.30;98772.91;4969808;28;20122;-83
2024/01/03 13:42:39;;;;;;;6.05;1.25;;;;;;;10.58;49.67;98789.50;4951256;28;20035;-84
2024/01/03 13:45:08;;;;;;;5.97;1.60;;;;;;;10.58;49.78;98799.59;4965819;28;20078;-84
2024/01/03 13:47:36;;;;;;;5.10;1.30;;;;;;;10.62;49.46;98789.13;4968054;28;20047;-84
2024/01/03 13:50:05;;;;;;;4.97;1.30;;;;;;;10.64;49.27;98792.56;4970767;28;20046;-83
2024/01/03 13:52:34;;;;;;;5.18;1.35;;;;;;;10.66;49.82;98790.47;4954707;28;20039;-82
2024/01/03 13:55:02;;;;;;;4.22;1.15;;;;;;;10.64;49.77;98785.19;4951898;28;20491;-83
2024/01/03 13:57:30;;;;;;;5.07;1.67;;;;;;;10.68;49.76;98780.19;4957381;28;20043;-84
2024/01/03 14:00:01;;;;;;;6.88;1.73;;;;;;;10.70;49.22;98780.84;4954133;28;20047;-83
2024/01/03 14:02:31;;;;;;;4.53;1.35;;;;;;;10.69;49.40;98776.41;4971796;28;20043;-83
2024/01/03 14:04:59;;;;;;;6.63;1.50;;;;;;;10.72;49.21;98779.66;4954987;28;20039;-83
2024/01/03 14:07:27;;;;;;;5.25;1.40;;;;;;;10.75;49.26;98770.19;4971350;28;20047;-84
2024/01/03 14:09:56;;;;;;;5.30;1.60;;;;;;;10.76;49.04;98778.22;4946081;29;20098;-84
2024/01/03 14:12:24;;;;;;;5.10;1.38;;;;;;;10.75;48.87;98778.41;4970749;28;20113;-84
2024/01/03 14:14:52;;;;;;;4.68;1.20;;;;;;;10.78;49.10;98775.31;4953419;28;20051;-83
2024/01/03 14:17:20;;;;;;;3.55;1.40;;;;;;;10.77;48.92;98762.66;4959423;28;20047;-84
2024/01/03 14:19:49;;;;;;;5.97;1.10;;;;;;;10.75;49.15;98778.41;4974847;28;20042;-83
2024/01/03 14:22:17;;;;;;;6.18;1.45;;;;;;;10.77;49.21;98787.28;4976365;28;20049;-85
2024/01/03 14:24:45;;;;;;;3.30;1.10;;;;;;;10.76;48.79;98778.22;4960491;28;20057;-84
2024/01/03 14:27:15;;;;;;;7.63;1.85;;;;;;;10.74;49.25;98771.22;4977179;28;20051;-83
2024/01/03 14:29:43;;;;;;;5.13;1.55;;;;;;;10.73;48.83;98773.09;4964539;28;20611;-83
2024/01/03 14:32:12;;;;;;;3.47;1.40;;;;;;;10.73;49.20;98780.50;4955105;28;20659;-83
2024/01/03 14:34:42;;;;;;;7.25;1.52;;;;;;;10.71;48.94;98774.34;4970722;28;20231;-84
2024/01/03 14:37:10;;;;;;;3.58;1.20;;;;;;;10.68;49.08;98766.50;4974292;28;20050;-83
2024/01/03 14:39:40;;;;;;;4.25;1.20;;;;;;;10.66;49.41;98768.56;4974039;28;20097;-84
2024/01/03 14:42:18;;;;;;;4.35;1.38;;;;;;;10.63;49.08;98772.56;4953830;28;20067;-83
2024/01/03 14:44:48;;;;;;;4.22;1.10;;;;;;;10.64;49.46;98776.13;4975191;28;20047;-85
2024/01/03 14:47:16;;;;;;;3.67;1.40;;;;;;;10.58;49.22;98772.25;4955169;28;20058;-84
2024/01/03 14:49:44;;;;;;;4.38;1.30;;;;;;;10.54;49.13;98766.31;4947926;29;20042;-84
2024/01/03 14:52:12;;;;;;;5.50;1.33;;;;;;;10.52;49.64;98773.81;4974147;28;20053;-84
2024/01/03 14:54:42;;;;;;;5.95;2.30;;;;;;;10.51;50.03;98766.63;4974312;28;20034;-84
2024/01/03 14:57:11;;;;;;;5.90;2.00;;;;;;;10.48;49.73;98760.69;4960034;28;20054;-84
2024/01/03 14:59:40;;;;;;;5.20;1.55;;;;;;;10.45;49.96;98772.00;4954816;28;20039;-83
2024/01/03 15:02:10;;;;;;;4.85;1.30;;;;;;;10.44;49.72;98771.13;4943239;28;20047;-83
2024/01/03 15:04:37;;;;;;;4.55;1.50;;;;;;;10.39;49.83;98767.28;4969722;28;20481;-86
2024/01/03 15:07:08;;;;;;;4.55;1.38;;;;;;;10.38;50.42;98773.78;4974837;28;20126;-84
2024/01/03 15:09:38;;;;;;;2.70;1.20;;;;;;;10.37;50.67;98766.59;4968459;28;20105;-85
2024/01/03 15:12:07;;;;;;;3.53;1.15;;;;;;;10.30;50.08;98758.28;4974083;28;20043;-84
2024/01/03 15:14:36;;;;;;;4.18;1.20;;;;;;;10.29;50.12;98762.03;4956801;28;20053;-85
2024/01/03 15:17:06;;;;;;;6.13;1.60;;;;;;;10.27;50.28;98761.38;4965705;28;20137;-84
2024/01/03 15:19:35;;;;;;;3.85;1.35;;;;;;;10.26;50.50;98751.47;4981155;28;20035;-84
2024/01/03 15:22:06;;;;;;;4.45;1.67;;;;;;;10.23;50.56;98760.88;4980411;28;20047;-85
2024/01/03 15:24:35;;;;;;;6.18;1.50;;;;;;;10.18;50.53;98755.13;4959309;28;20051;-83
2024/01/03 15:27:03;;;;;;;4.03;1.50;;;;;;;10.18;50.94;98749.66;4951176;28;20126;-83
2024/01/03 15:29:32;;;;;;;4.57;1.35;;;;;;;10.18;51.03;98748.81;4947965;28;20488;-83
2024/01/03 15:32:00;;;;;;;5.88;1.88;;;;;;;10.17;50.80;98742.47;4956929;28;20073;-83
2024/01/03 15:34:28;;;;;;;6.82;1.63;;;;;;;10.15;50.71;98732.78;4955725;28;20055;-85
2024/01/03 15:36:59;;;;;;;4.15;1.60;;;;;;;10.14;51.34;98734.66;4958546;28;20093;-84
2024/01/03 15:39:28;;;;;;;4.32;1.80;;;;;;;10.14;50.76;98723.72;4973832;28;20047;-85
2024/01/03 15:41:56;;;;;;;4.43;1.50;;;;;;;10.13;50.92;98734.84;4956658;28;20050;-84
2024/01/03 15:44:25;;;;;;;4.70;1.85;;;;;;;10.13;50.90;98727.50;4960140;28;20043;-84
2024/01/03 15:46:53;;;;;;;4.68;1.85;;;;;;;10.13;50.91;98723.91;4955521;28;20074;-84
2024/01/03 15:49:24;;;;;;;7.00;1.95;;;;;;;10.12;50.73;98723.06;4951255;28;20050;-85
2024/01/03 15:51:59;;;;;;;5.53;2.22;;;;;;;10.13;51.31;98724.75;4972086;28;20415;-84
2024/01/03 15:54:27;;;;;;;5.07;1.77;;;;;;;10.10;51.18;98716.06;4956168;28;20718;-83
2024/01/03 15:57:12;;;;;;;6.55;3.50;;;;;;;10.09;51.13;98711.63;4968973;28;20126;-85
2024/01/03 15:59:40;;;;;;;5.97;2.38;;;;;;;10.10;51.34;98710.59;4955107;28;20035;-84
2024/01/03 16:02:08;;;;;;;5.57;2.03;;;;;;;10.08;51.36;98713.50;4958213;28;20058;-84
2024/01/03 16:04:36;;;;;;;6.55;2.00;;;;;;;10.09;51.53;98709.75;4970614;28;20048;-86
2024/01/03 16:07:06;;;;;;;4.93;1.92;;;;;;;10.10;51.53;98708.72;4960632;28;20051;-82
2024/01/03 16:09:34;;;;;;;6.32;2.38;;;;;;;10.09;50.93;98709.75;4971836;28;20035;-85
2024/01/03 16:12:04;;;;;;;5.95;1.65;;;;;;;10.10;51.53;98708.72;4964716;28;20050;-85
2024/01/03 16:14:32;;;;;;;5.60;1.88;;;;;;;10.09;50.98;98704.28;4958932;28;20054;-85
2024/01/03 16:17:00;;;;;;;4.85;1.63;;;;;;;10.10;51.34;98703.25;4958484;28;20427;-86
2024/01/03 16:19:28;;;;;;;6.03;1.95;;;;;;;10.10;51.30;98699.66;4955613;28;20309;-84
2024/01/03 16:21:56;;;;;;;6.28;1.90;;;;;;;10.10;50.92;98700.53;4965683;28;20046;-85
2024/01/03 16:24:27;;;;;;;4.90;1.80;;;;;;;10.13;51.03;98696.56;4952418;28;20062;-86
2024/01/03 16:27:01;;;;;;;5.82;1.75;;;;;;;10.10;51.16;98695.06;4959069;28;20050;-84
2024/01/03 16:29:31;;;;;;;5.82;1.67;;;;;;;10.09;51.28;98696.09;4981776;28;20042;-84
2024/01/03 16:32:00;;;;;;;5.95;1.73;;;;;;;10.12;50.85;98692.13;4975419;28;20054;-84
2024/01/03 16:34:28;;;;;;;3.42;1.35;;;;;;;10.09;50.96;98695.22;4958478;28;20051;-84
2024/01/03 16:36:58;;;;;;;5.70;1.45;;;;;;;10.13;50.82;98702.91;4975106;28;20049;-85
2024/01/03 16:39:27;;;;;;;5.93;1.30;;;;;;;10.13;50.75;98699.31;4967636;28;20055;-85
2024/01/03 16:41:56;;;;;;;2.45;1.20;;;;;;;10.12;50.77;98687.53;4962107;28;20117;-85
2024/01/03 16:44:25;;;;;;;5.40;1.55;;;;;;;10.11;50.36;98691.28;4964957;28;20051;-84
2024/01/03 16:46:54;;;;;;;5.78;1.50;;;;;;;10.13;50.10;98680.19;4978039;28;20051;-85
2024/01/03 16:49:23;;;;;;;7.28;1.88;;;;;;;10.12;50.02;98681.22;4958055;28;20108;-85
2024/01/03 16:51:52;;;;;;;3.85;1.00;;;;;;;10.12;50.37;98683.94;4970554;28;20039;-84
2024/01/03 16:54:21;;;;;;;3.05;1.15;;;;;;;10.11;50.01;98680.34;4969509;28;20054;-84
2024/01/03 16:56:50;;;;;;;5.15;1.10;;;;;;;10.11;49.60;98688.56;4967676;28;20078;-83
2024/01/03 16:59:19;;;;;;;4.93;1.13;;;;;;;10.09;49.51;98684.31;4965278;28;20098;-85
2024/01/03 17:01:48;;;;;;;4.05;1.27;;;;;;;10.08;49.98;98682.59;4960609;28;20147;-84
2024/01/03 17:04:16;;;;;;;4.53;1.00;;;;;;;10.08;49.73;98685.31;4966669;28;20061;-84
2024/01/03 17:06:45;;;;;;;4.07;1.15;;;;;;;10.05;49.59;98681.09;4949266;29;20036;-84
2024/01/03 17:09:15;;;;;;;4.00;1.27;;;;;;;10.04;49.87;98671.19;4972938;28;20575;-84
2024/01/03 17:11:44;;;;;;;4.00;1.05;;;;;;;10.04;49.65;98671.19;4970012;28;20045;-85
2024/01/03 17:14:15;;;;;;;2.78;1.10;;;;;;;10.03;49.47;98693.25;4974619;28;20057;-86
2024/01/03 17:16:45;;;;;;;3.95;1.20;;;;;;;10.04;49.52;98697.69;4950003;28;20074;-84
2024/01/03 17:19:14;;;;;;;3.25;1.30;;;;;;;10.02;50.06;98703.31;4956556;28;20150;-84
2024/01/03 17:21:42;;;;;;;4.53;1.30;;;;;;;10.01;49.94;98698.88;4950112;28;20058;-84
2024/01/03 17:24:10;;;;;;;4.05;1.50;;;;;;;10.02;49.93;98710.66;4955454;28;20054;-86
2024/01/03 17:26:39;;;;;;;2.42;1.15;;;;;;;10.01;50.21;98703.50;4973584;28;20078;-84
2024/01/03 17:29:08;;;;;;;3.92;1.27;;;;;;;10.02;49.60;98705.19;4954185;28;20043;-85
2024/01/03 17:31:37;;;;;;;2.92;1.10;;;;;;;10.03;50.04;98705.03;4984520;28;20050;-84
2024/01/03 17:34:05;;;;;;;5.32;2.15;;;;;;;10.02;49.72;98702.47;4982550;28;20066;-84
2024/01/03 17:36:35;;;;;;;4.18;1.63;;;;;;;10.00;50.06;98704.53;4969359;28;20051;-85
2024/01/03 17:39:03;;;;;;;6.82;1.90;;;;;;;10.03;49.90;98704.16;4963691;28;20050;-85
2024/01/03 17:41:33;;;;;;;6.35;2.10;;;;;;;9.99;49.82;98698.22;4953887;28;20051;-85
2024/01/03 17:44:02;;;;;;;4.05;1.50;;;;;;;10.02;50.00;98706.06;4958142;28;20047;-86
2024/01/03 17:46:30;;;;;;;5.50;1.77;;;;;;;10.02;49.70;98702.47;4950230;28;20073;-85
2024/01/03 17:49:00;;;;;;;4.07;1.48;;;;;;;10.01;49.90;98698.03;4957962;28;20043;-84
2024/01/03 17:51:30;;;;;;;4.60;1.55;;;;;;;10.00;50.08;98697.19;4965968;28;20098;-86
2024/01/03 17:53:58;;;;;;;3.97;1.60;;;;;;;10.01;49.60;98692.56;4948882;28;20059;-86
2024/01/03 17:56:26;;;;;;;4.07;1.55;;;;;;;9.98;49.96;98691.06;4955171;28;20045;-85
2024/01/03 17:58:56;;;;;;;3.35;1.50;;;;;;;10.00;50.10;98677.19;4950540;28;20042;-85
2024/01/03 18:01:25;;;;;;;4.03;1.55;;;;;;;9.99;50.33;98672.78;4966140;28;20491;-86
2024/01/03 18:03:53;;;;;;;6.03;1.70;;;;;;;9.99;49.95;98708.31;4962311;28;20114;-87
2024/01/03 18:06:25;;;;;;;4.88;1.33;;;;;;;9.98;50.13;98747.59;4951578;28;20082;-85
2024/01/03 18:08:56;;;;;;;4.93;1.38;;;;;;;9.97;50.36;98734.97;4942846;28;20039;-86
2024/01/03 18:11:27;;;;;;;3.92;1.02;;;;;;;9.94;50.38;98724.41;4965311;28;20047;-85
2024/01/03 18:13:56;;;;;;;4.80;1.45;;;;;;;9.90;50.26;98717.59;4960717;28;20047;-86
2024/01/03 18:16:24;;;;;;;4.82;1.00;;;;;;;9.89;50.78;98724.94;4955386;28;20420;-85
2024/01/03 18:18:53;;;;;;;2.53;1.10;;;;;;;9.86;50.49;98728.03;4956736;28;20066;-87
2024/01/03 18:21:24;;;;;;;3.45;1.30;;;;;;;9.85;50.67;98729.91;4963765;28;20101;-86
2024/01/03 18:23:52;;;;;;;3.58;1.55;;;;;;;9.79;50.78;98727.91;4947771;28;20101;-86
2024/01/03 18:26:20;;;;;;;5.28;1.80;;;;;;;9.77;50.67;98734.59;4948888;28;20051;-85
2024/01/03 18:28:50;;;;;;;3.90;1.70;;;;;;;9.73;50.71;98731.38;4955404;28;20042;-86
2024/01/03 18:31:18;;;;;;;4.00;2.15;;;;;;;9.73;50.42;98750.50;4965126;28;20050;-86
2024/01/03 18:33:46;;;;;;;6.15;2.53;;;;;;;9.71;50.55;98749.81;4949872;29;20053;-85
2024/01/03 18:36:16;;;;;;;4.05;1.65;;;;;;;9.69;50.68;98749.16;4956123;28;20047;-86
2024/01/03 18:38:46;;;;;;;4.22;1.70;;;;;;;9.69;50.60;98760.06;4952042;29;20051;-86
2024/01/03 18:41:15;;;;;;;4.47;1.70;;;;;;;9.65;50.77;98756.00;4956482;28;20436;-86
2024/01/03 18:43:44;;;;;;;3.17;1.45;;;;;;;9.61;51.18;98743.72;4946971;29;20039;-86
2024/01/03 18:46:12;;;;;;;3.47;1.52;;;;;;;9.60;50.64;98746.63;4951009;28;20075;-86
2024/01/03 18:48:40;;;;;;;3.78;1.55;;;;;;;9.62;50.84;98758.25;4943816;28;20070;-87
2024/01/03 18:51:09;;;;;;;4.00;1.33;;;;;;;9.60;51.25;98760.28;4949154;28;20050;-86
2024/01/03 18:53:37;;;;;;;4.45;1.60;;;;;;;9.58;50.89;98765.94;4951209;28;20130;-86
2024/01/03 18:56:07;;;;;;;4.25;1.35;;;;;;;9.58;51.33;98770.53;4947978;28;20058;-85
2024/01/03 18:58:35;;;;;;;4.47;1.40;;;;;;;9.54;51.61;98761.88;4962206;28;20050;-85
2024/01/03 19:01:04;;;;;;;4.68;1.75;;;;;;;9.55;51.29;98766.31;4959273;28;20039;-85
2024/01/03 19:03:32;;;;;;;5.18;1.27;;;;;;;9.53;51.71;98764.78;4955313;28;20035;-86
2024/01/03 19:06:01;;;;;;;6.10;1.67;;;;;;;9.54;51.29;98771.94;4956252;28;20051;-85
2024/01/03 19:08:29;;;;;;;4.28;1.55;;;;;;;9.53;51.21;98773.81;4961695;28;20052;-85
2024/01/03 19:10:57;;;;;;;4.00;1.45;;;;;;;9.53;51.42;98772.97;4951291;28;20035;-86
2024/01/03 19:13:26;;;;;;;3.20;1.33;;;;;;;9.53;51.44;98776.56;4968517;28;20038;-85
2024/01/03 19:15:59;;;;;;;3.22;1.23;;;;;;;9.52;51.38;98776.72;4962021;28;20050;-86
2024/01/03 19:18:27;;;;;;;3.88;1.20;;;;;;;9.47;51.55;98777.28;4970866;28;20499;-85
2024/01/03 19:20:56;;;;;;;3.00;1.20;;;;;;;9.48;51.30;98778.97;4950613;28;20043;-85
2024/01/03 19:23:24;;;;;;;3.75;1.10;;;;;;;9.49;51.75;98780.69;4974469;28;20035;-85
2024/01/03 19:25:53;;;;;;;3.08;0.80;;;;;;;9.44;51.18;98773.00;4953289;28;20086;-86
2024/01/03 19:28:22;;;;;;;4.57;1.08;;;;;;;9.46;51.21;98764.66;4957072;28;20380;-85
2024/01/03 19:30:51;;;;;;;5.57;1.17;;;;;;;9.48;51.51;98769.94;4960680;28;20137;-86
2024/01/03 19:33:19;;;;;;;3.25;1.17;;;;;;;9.42;51.59;98774.19;4973220;28;20435;-85
2024/01/03 19:35:48;;;;;;;3.25;1.00;;;;;;;9.42;52.03;98779.66;4955909;28;20049;-86
2024/01/03 19:38:16;;;;;;;2.38;1.00;;;;;;;9.43;51.95;98781.38;4942941;28;20047;-87
2024/01/03 19:40:47;;;;;;;3.70;1.05;;;;;;;9.44;52.07;98777.63;4966247;28;20054;-85
2024/01/03 19:43:18;;;;;;;3.72;1.10;;;;;;;9.40;51.48;98785.31;4958217;28;20054;-85
2024/01/03 19:45:46;;;;;;;3.35;1.30;;;;;;;9.39;52.08;98786.34;4972851;28;20037;-85
2024/01/03 19:48:16;;;;;;;2.05;1.10;;;;;;;9.41;52.02;98794.38;4950704;28;20093;-85
2024/01/03 19:50:45;;;;;;;2.97;1.08;;;;;;;9.39;51.86;98799.16;4959987;28;20066;-85
2024/01/03 19:53:13;;;;;;;3.92;1.60;;;;;;;9.38;51.65;98803.75;4958370;28;20414;-86
2024/01/03 19:58:27;;;;;;;3.13;1.10;;;;;;;9.36;52.01;98811.22;4968744;28;20043;-86
2024/01/03 20:00:55;;;;;;;3.58;0.90;;;;;;;9.36;51.98;98815.84;4956688;28;20038;-85
2024/01/03 20:03:25;;;;;;;3.50;1.02;;;;;;;9.36;51.67;98813.09;4962650;28;20098;-86
2024/01/03 20:05:54;;;;;;;3.40;1.20;;;;;;;9.35;52.06;98830.50;4970619;28;20055;-86
2024/01/03 20:08:23;;;;;;;3.08;1.00;;;;;;;9.33;51.60;98824.41;4954245;28;20094;-84
2024/01/03 20:10:51;;;;;;;3.00;1.35;;;;;;;9.32;51.83;98826.28;4970620;28;20047;-85
2024/01/03 20:13:19;;;;;;;3.22;1.00;;;;;;;9.30;51.85;98825.59;4953611;28;20525;-85
2024/01/03 20:15:48;;;;;;;2.72;1.00;;;;;;;9.30;52.27;98822.00;4969283;28;20058;-85
2024/01/03 20:18:16;;;;;;;2.38;1.00;;;;;;;9.31;52.19;98824.56;4953159;28;20062;-85
2024/01/03 20:20:45;;;;;;;3.35;1.10;;;;;;;9.31;51.80;98819.09;4971525;28;20046;-85
2024/01/03 20:23:13;;;;;;;2.70;1.00;;;;;;;9.31;52.22;98830.03;4971900;28;20452;-85
2024/01/03 20:25:42;;;;;;;2.78;1.10;;;;;;;9.32;52.39;98842.66;4974729;28;20062;-85
2024/01/03 20:28:10;;;;;;;2.85;1.10;;;;;;;9.32;52.23;98833.63;4967115;28;20082;-85
2024/01/03 20:30:38;;;;;;;3.03;1.10;;;;;;;9.32;52.36;98834.47;4969441;28;20130;-84
2024/01/03 20:33:07;;;;;;;3.33;1.00;;;;;;;9.32;51.86;98844.53;4972923;28;20051;-84
2024/01/03 20:35:35;;;;;;;4.07;1.48;;;;;;;9.31;52.18;98835.50;4969304;28;20043;-84
2024/01/03 20:38:05;;;;;;;2.58;1.17;;;;;;;9.33;52.35;98851.69;4949894;28;20051;-84
2024/01/03 20:40:33;;;;;;;2.88;1.15;;;;;;;9.29;52.27;98845.72;4964178;28;20422;-84
2024/01/03 20:43:02;;;;;;;3.03;1.10;;;;;;;9.31;51.98;98862.78;4952977;28;20503;-84
2024/01/03 20:45:30;;;;;;;3.08;1.25;;;;;;;9.31;52.24;98859.19;4950501;28;20043;-84
2024/01/03 20:47:58;;;;;;;2.83;1.25;;;;;;;9.31;51.96;98862.78;4945359;29;20050;-84
2024/01/03 20:50:29;;;;;;;2.78;1.02;;;;;;;9.30;51.91;98850.16;4971181;28;20403;-84
2024/01/03 20:52:57;;;;;;;2.30;1.00;;;;;;;9.30;51.95;98866.53;4967729;28;20043;-84
2024/01/03 20:55:26;;;;;;;4.55;1.30;;;;;;;9.32;51.75;98864.50;4970004;28;20067;-85
2024/01/03 20:57:54;;;;;;;2.92;1.10;;;;;;;9.30;51.76;98862.97;4947129;28;20055;-84
2024/01/03 21:00:23;;;;;;;3.17;1.17;;;;;;;9.31;52.09;98860.06;4970892;28;20098;-84
2024/01/03 21:02:54;;;;;;;3.00;1.15;;;;;;;9.30;51.90;98865.69;4953995;28;20122;-84
2024/01/03 21:05:22;;;;;;;4.88;1.50;;;;;;;9.33;51.99;98857.16;4953660;28;20046;-85
2024/01/03 21:07:50;;;;;;;3.75;1.27;;;;;;;9.30;52.23;98865.69;4948119;29;20054;-84
2024/01/03 21:10:18;;;;;;;3.00;1.20;;;;;;;9.28;52.07;98865.00;4964360;28;20153;-84
2024/01/03 21:12:48;;;;;;;3.92;1.30;;;;;;;9.31;51.81;98861.94;4974318;28;20042;-84
2024/01/03 21:15:16;;;;;;;8.85;1.40;;;;;;;9.31;52.17;98867.41;4957584;28;20066;-84
2024/01/03 21:17:44;;;;;;;2.70;1.02;;;;;;;9.30;51.82;98865.69;4958239;28;20042;-84
2024/01/03 21:20:13;;;;;;;3.42;1.20;;;;;;;9.28;52.12;98878.66;4971083;28;20585;-84
2024/01/03 21:22:41;;;;;;;4.15;1.20;;;;;;;9.29;51.83;98872.16;4959738;28;20053;-84
2024/01/03 21:25:09;;;;;;;2.78;1.00;;;;;;;9.28;51.75;98868.59;4954749;28;20055;-84
2024/01/03 21:27:37;;;;;;;4.57;1.15;;;;;;;9.25;51.78;98881.72;4955970;28;20055;-84
2024/01/03 21:30:21;;;;;;;4.03;1.40;;;;;;;9.29;52.13;98869.44;4953791;28;20051;-85
2024/01/03 21:32:50;;;;;;;;;;;;;;;9.04;52.71;98876.81;4952286;29;20047;-85
2024/01/03 21:35:18;;;;;;;3.10;1.20;;;;;;;9.23;52.03;98884.66;4952173;28;19957;-84
2024/01/03 21:37:47;;;;;;;3.83;1.27;;;;;;;9.29;52.38;98880.34;4954046;28;20059;-84
2024/01/03 21:40:15;;;;;;;4.05;1.55;;;;;;;9.29;52.42;98883.09;4965307;28;20046;-85
2024/01/03 21:42:45;;;;;;;4.75;1.02;;;;;;;9.28;52.03;98882.22;4960442;28;20053;-85
2024/01/03 21:45:13;;;;;;;2.88;1.20;;;;;;;9.29;51.83;98883.94;4955034;28;20058;-86
2024/01/03 21:47:43;;;;;;;4.05;1.20;;;;;;;9.29;52.16;98881.22;4963244;28;20104;-86
2024/01/03 21:50:11;;;;;;;4.13;1.20;;;;;;;9.28;51.97;98868.59;4984393;28;20078;-84
2024/01/03 21:52:45;;;;;;;4.30;1.25;;;;;;;9.29;51.92;98880.34;4960924;28;20135;-85
2024/01/03 21:55:14;;;;;;;3.28;1.05;;;;;;;9.28;51.87;98889.56;4959446;28;20054;-84
2024/01/03 21:57:42;;;;;;;4.32;1.15;;;;;;;9.28;51.93;98897.75;4950037;28;20058;-86
2024/01/03 22:00:11;;;;;;;3.90;1.30;;;;;;;9.26;51.74;98899.81;4944132;28;20054;-84
2024/01/03 22:02:39;;;;;;;3.50;1.20;;;;;;;9.27;52.24;98896.91;4969942;28;20039;-85
2024/01/03 22:05:13;;;;;;;4.75;1.33;;;;;;;9.29;52.17;98900.31;4955167;28;20051;-85